Terminal Aerodrome Forecast
Issued by NWS Memphis, TN

Current Version | Previous Version | Text Only | Print | Product List | Glossary On
Versions: 1 2 3 4 5 6 7 8 9 10 11 12 13
526
FTUS44 KMEG 112320
TAFJBR
TAF
KJBR 112320Z 1200/1224 04010KT P6SM SKC
     FM120100 05004KT P6SM OVC250
     FM121600 36005KT P6SM SCT150=

USA.gov is the U.S. government's official web portal to all federal, state and local government web resources and services.